Historique des mesures à Cassis (13260), France
Quotidien Résumé Fevrier 11, 2018 Unités:  Métrique    US   Métrique/US
« Précédent (Jour)
Suivant (Jour) »
Quotidien Hebdomadaire Mensuel Annuel Période au choix
  Maximum: Minimum: Moyenne:
Température: TemperatureC °C 3.5 °C 7.6 °C
Point de rosée: DewpointC °C -3.1 °C 0.1 °C
Humidité: Humidity % 45 % 56 %
Vitesse du vent: 0 km/h 0 km/h 16.4 km/h
Rafales: 0 km/h - -
Vent:- - SW
Pression: PressurehPa hPa 1006.7 hPa -
Précipitations: 0 mm    
Historical Graphs
 
 
Mesures pour : Fevrier 11, 2018
Heure Temperature Point de rosée Pression Vent Vitesse du vent Rafales Humidité Pluie (par heure)
TemperatureC °C DewpointC °C PressurehPa hPa Calm     Humidity % 0 mm
00:12 4.8 °C -2.1 °C 1009.7 hPa NNW 6.4 km/h 17.4 km/h 61 % 0 mm
01:12 4.1 °C -2.6 °C 1009.7 hPa North 20.3 km/h 26.2 km/h 62 % 0 mm
02:12 4.6 °C -2.5 °C 1009.4 hPa NNE 14 km/h 31.4 km/h 60 % 0 mm
03:12 4.5 °C -2.8 °C 1009.4 hPa NW 26.2 km/h 35.2 km/h 59 % 0 mm
04:12 4.3 °C -3.1 °C 1009.4 hPa NW 20.9 km/h 26.2 km/h 59 % 0 mm
05:12 3.5 °C -3.1 °C 1009.0 hPa North 12.2 km/h 14 km/h 62 % 0 mm
06:12 4.2 °C -2.9 °C 1009.0 hPa WNW 4.7 km/h 26.7 km/h 60 % 0 mm
07:12 4.7 °C -2.9 °C 1009.0 hPa NNW 7.6 km/h 16.9 km/h 58 % 0 mm
08:12 5.1 °C -3.0 °C 1009.4 hPa Calm   13.2 km/h 56 % 0 mm
09:12 5.9 °C -2.7 °C 1009.7 hPa North 23 km/h 24.3 km/h 54 % 0 mm
10:12 7.3 °C -1.7 °C 1009.7 hPa NW 3.4 km/h 22 km/h 53 % 0 mm
11:12 8.8 °C -1.4 °C 1009.7 hPa WNW 6.4 km/h 11.6 km/h 49 % 0 mm
12:12 10.3 °C -1.2 °C 1009.4 hPa North 8.9 km/h 23 km/h 45 % 0 mm
13:12 10.8 °C 0.2 °C 1008.7 hPa NW 14 km/h 38.3 km/h 48 % 0 mm
14:12 11.4 °C 0.7 °C 1008.4 hPa WNW 33.6 km/h 33.6 km/h 48 % 0 mm
15:12 10.9 °C 2.4 °C 1008.0 hPa NW 45.4 km/h 45.4 km/h 56 % 0 mm
16:12 11.4 °C 3.9 °C 1007.3 hPa West 27.2 km/h 29 km/h 60 % 0 mm
17:12 10.4 °C 3.8 °C 1007.3 hPa West 9.8 km/h 9.8 km/h 64 % 0 mm
18:12 10.1 °C 4.7 °C 1007.3 hPa WNW 9.3 km/h 9.3 km/h 69 % 0 mm
19:12 9.9 °C 4.9 °C 1007.3 hPa Calm   8 km/h 71 % 0 mm
20:12 10.3 °C 4.9 °C 1007.3 hPa WNW 40.7 km/h 40.7 km/h 69 % 0 mm
21:12 10.6 °C 4.1 °C 1007.3 hPa NW 19.6 km/h 19.6 km/h 64 % 0 mm
22:12 10.6 °C 3.2 °C 1006.7 hPa West 33.6 km/h 33.6 km/h 60 % 0 mm
23:12 10.3 °C 2.1 °C 1007.0 hPa NW 23 km/h 46.8 km/h 57 % 0 mm
Observations météo à CASSIS
WU-History script by Weather Underground - 1 mb